Time;durP1;ratioP1;P1;durP2;ratioP2;P2;SDS_P1;SDS_P2;PMS_P1;PMS_P2;Temp;Humidity;BMP_temperature;BMP_pressure;BME280_temperature;BME280_humidity;BME280_pressure;Samples;Min_cycle;Max_cycle;Signal;HPM_P1;HPM_P2
2023/07/09 00:01:26;;;;;;;10.85;5.60;;;;;;;-142.57;65.50;115900.28;6257158;23;20036;-80
2023/07/09 00:03:53;;;;;;;11.05;5.80;;;;;;;-142.57;64.47;115900.28;6227545;23;20009;-82
2023/07/09 00:06:19;;;;;;;15.15;6.00;;;;;;;-142.57;64.60;115900.28;6262170;23;20015;-86
2023/07/09 00:09:01;;;;;;;11.63;5.65;;;;;;;-142.57;65.29;115900.28;6258802;23;20000;-80
2023/07/09 00:11:27;;;;;;;11.18;5.78;;;;;;;-142.57;64.87;115900.28;6258341;23;20036;-83
2023/07/09 00:13:52;;;;;;;14.38;5.65;;;;;;;-142.57;64.62;115900.28;6260099;23;20435;-82
2023/07/09 00:16:22;;;;;;;10.85;5.93;;;;;;;-142.57;64.62;115900.28;6265257;23;20008;-81
2023/07/09 00:18:51;;;;;;;13.98;6.38;;;;;;;-142.57;65.73;115900.28;6214079;23;20020;-88
2023/07/09 00:21:25;;;;;;;15.45;6.03;;;;;;;-142.57;65.94;115900.28;6260976;23;20008;-81
2023/07/09 00:23:50;;;;;;;8.00;5.22;;;;;;;-142.57;65.77;115900.28;6232614;23;20038;-80
2023/07/09 00:26:23;;;;;;;15.02;6.38;;;;;;;-142.57;66.32;115900.28;6259403;23;20000;-85
2023/07/09 00:28:48;;;;;;;10.98;5.47;;;;;;;-142.57;65.35;115900.28;6256983;23;20024;-80
2023/07/09 00:31:16;;;;;;;12.25;5.97;;;;;;;-142.57;65.31;115900.28;6257480;23;20035;-81
2023/07/09 00:33:43;;;;;;;13.48;5.85;;;;;;;-142.57;65.81;115900.28;6231136;23;20066;-83
2023/07/09 00:36:31;;;;;;;12.73;5.38;;;;;;;-142.57;64.48;115900.28;6206250;23;20023;-82
2023/07/09 00:38:59;;;;;;;9.80;5.50;;;;;;;-142.57;64.60;115900.28;6229867;23;20067;-85
2023/07/09 00:41:25;;;;;;;12.15;5.65;;;;;;;-142.57;64.39;115900.28;6233895;23;20000;-83
2023/07/09 00:43:51;;;;;;;10.07;6.03;;;;;;;-142.57;65.04;115900.28;6255493;23;20008;-82
2023/07/09 00:46:37;;;;;;;9.00;5.32;;;;;;;-142.57;65.75;115900.28;6256232;23;20015;-81
2023/07/09 00:49:08;;;;;;;13.43;5.90;;;;;;;-142.57;66.04;115900.28;6192187;23;20074;-82
2023/07/09 00:51:41;;;;;;;14.02;5.50;;;;;;;-142.57;66.18;115900.28;6259790;23;20043;-83
2023/07/09 00:54:42;;;;;;;14.70;5.70;;;;;;;-142.57;68.47;115900.28;6236503;23;20071;-86
2023/07/09 00:57:13;;;;;;;9.95;5.85;;;;;;;-142.57;69.58;115900.28;6262566;23;20008;-82
2023/07/09 00:59:39;;;;;;;10.45;6.40;;;;;;;-142.57;68.98;115900.28;6259988;23;20091;-83
2023/07/09 01:02:07;;;;;;;10.93;5.85;;;;;;;-142.57;67.82;115900.28;6230245;23;20060;-81
2023/07/09 01:04:34;;;;;;;15.63;6.10;;;;;;;-142.57;69.18;115900.28;6256691;23;20462;-82
2023/07/09 01:07:00;;;;;;;11.73;5.72;;;;;;;-142.57;68.31;115900.28;6256429;23;20008;-82
2023/07/09 01:09:26;;;;;;;14.20;6.35;;;;;;;-142.57;67.97;115900.28;6258760;23;20009;-85
2023/07/09 01:11:56;;;;;;;10.95;5.90;;;;;;;-142.57;68.06;115900.28;6232941;23;20440;-83
2023/07/09 01:14:25;;;;;;;8.80;5.72;;;;;;;-142.57;70.22;115900.28;6236284;23;20024;-82
2023/07/09 01:17:02;;;;;;;9.63;5.70;;;;;;;-142.57;68.85;115900.28;6262446;23;20015;-84
2023/07/09 01:19:42;;;;;;;18.33;5.82;;;;;;;-142.57;69.58;115900.28;6259550;23;20071;-81
2023/07/09 01:22:11;;;;;;;9.98;5.72;;;;;;;-142.57;70.90;115900.28;6232529;23;20020;-84
2023/07/09 01:25:01;;;;;;;10.10;5.78;;;;;;;-142.57;69.45;115900.28;6231034;23;20317;-85
2023/07/09 01:27:38;;;;;;;19.88;6.03;;;;;;;-142.57;69.74;115900.28;6232319;23;20034;-84
2023/07/09 01:30:09;;;;;;;14.00;6.07;;;;;;;-142.57;70.09;115900.28;6207118;23;20017;-82
2023/07/09 01:32:37;;;;;;;14.45;5.68;;;;;;;-142.57;68.66;115900.28;6182774;23;20112;-81
2023/07/09 01:35:06;;;;;;;8.10;5.32;;;;;;;-142.57;68.77;115900.28;6258622;23;20011;-80
2023/07/09 01:37:36;;;;;;;13.10;6.15;;;;;;;-142.57;68.75;115900.28;6260516;23;20008;-81
2023/07/09 01:40:09;;;;;;;10.57;6.13;;;;;;;-142.57;69.41;115900.28;6233300;23;20012;-81
2023/07/09 01:42:37;;;;;;;11.45;5.97;;;;;;;-142.57;69.59;115900.28;6259862;23;20015;-81
2023/07/09 01:45:06;;;;;;;8.20;5.40;;;;;;;-142.57;70.15;115900.28;6232971;23;20008;-82
2023/07/09 01:47:32;;;;;;;17.27;6.05;;;;;;;-142.57;70.66;115900.28;6260141;23;20076;-82
2023/07/09 01:49:59;;;;;;;15.02;6.25;;;;;;;-142.57;69.54;115900.28;6260349;23;20135;-82
2023/07/09 01:52:31;;;;;;;11.00;5.35;;;;;;;-142.57;70.36;115900.28;6260656;23;20016;-81
2023/07/09 01:54:57;;;;;;;11.75;5.40;;;;;;;-142.57;69.33;115900.28;6268746;23;20032;-81
2023/07/09 01:57:32;;;;;;;12.70;5.57;;;;;;;-142.57;68.47;115900.28;6271661;22;20030;-81
2023/07/09 02:00:00;;;;;;;8.90;5.57;;;;;;;-142.57;68.55;115900.28;6249439;23;20016;-80
2023/07/09 02:02:26;;;;;;;13.18;5.80;;;;;;;-142.57;68.27;115900.28;6272176;23;20008;-82
2023/07/09 02:04:53;;;;;;;12.18;5.55;;;;;;;-142.57;69.12;115900.28;6268813;23;20038;-83
2023/07/09 02:07:21;;;;;;;7.90;5.20;;;;;;;-142.57;69.18;115900.28;6256128;23;20011;-85
2023/07/09 02:09:46;;;;;;;10.73;5.60;;;;;;;-142.57;70.90;115900.28;6254643;23;20062;-80
2023/07/09 02:12:14;;;;;;;9.85;5.57;;;;;;;-142.57;70.26;115900.28;6254914;23;20008;-83
2023/07/09 02:14:40;;;;;;;10.32;5.07;;;;;;;-142.57;70.38;115900.28;6258544;23;20015;-80
2023/07/09 02:17:07;;;;;;;10.70;5.85;;;;;;;-142.57;70.84;115900.28;6208204;23;20065;-80
2023/07/09 02:19:34;;;;;;;9.18;5.07;;;;;;;-142.57;70.42;115900.28;6270814;23;20011;-80
2023/07/09 02:21:59;;;;;;;10.43;4.93;;;;;;;-142.57;71.41;115900.28;6270849;23;20004;-79
2023/07/09 02:24:26;;;;;;;9.90;5.80;;;;;;;-142.57;70.68;115900.28;6240607;23;20012;-83
2023/07/09 02:26:56;;;;;;;17.55;5.68;;;;;;;-142.57;71.56;115900.28;6229953;23;20447;-82
2023/07/09 02:29:23;;;;;;;8.82;4.95;;;;;;;-142.57;71.65;115900.28;6258357;23;20030;-83
2023/07/09 02:31:51;;;;;;;10.57;5.25;;;;;;;-142.57;71.33;115900.28;6231888;23;20397;-81
2023/07/09 02:34:20;;;;;;;9.80;5.82;;;;;;;-142.57;72.20;115900.28;6230612;23;20009;-84
2023/07/09 02:36:46;;;;;;;10.82;5.43;;;;;;;-142.57;71.38;115900.28;6257019;23;20023;-84
2023/07/09 02:39:13;;;;;;;16.98;5.38;;;;;;;-142.57;70.96;115900.28;6258020;23;20012;-83
2023/07/09 02:41:40;;;;;;;12.85;5.32;;;;;;;-142.57;74.05;115900.28;6206214;23;20020;-82
2023/07/09 02:44:07;;;;;;;12.10;5.68;;;;;;;-142.57;72.86;115900.28;6230385;23;20037;-81
2023/07/09 02:46:33;;;;;;;13.80;5.75;;;;;;;-142.57;73.97;115900.28;6258166;23;20106;-83
2023/07/09 02:48:58;;;;;;;10.50;5.63;;;;;;;-142.57;74.79;115900.28;6231694;23;20008;-84
2023/07/09 02:51:28;;;;;;;10.38;5.32;;;;;;;-142.57;75.66;115900.28;6229660;23;20004;-82
2023/07/09 02:53:54;;;;;;;11.32;5.38;;;;;;;-142.57;74.47;115900.28;6257451;23;20004;-83
2023/07/09 02:56:20;;;;;;;11.00;6.30;;;;;;;-142.57;73.25;115900.28;6229407;23;20008;-84
2023/07/09 02:58:46;;;;;;;12.25;5.63;;;;;;;-142.57;74.10;115900.28;6230321;23;20008;-86
2023/07/09 03:01:13;;;;;;;11.75;5.60;;;;;;;-142.57;74.69;115900.28;6230355;23;20439;-84
2023/07/09 03:03:39;;;;;;;12.77;5.38;;;;;;;-142.57;74.28;115900.28;6229658;23;20046;-84
2023/07/09 03:06:05;;;;;;;7.47;4.93;;;;;;;-142.57;74.42;115900.28;6255239;23;20033;-82
2023/07/09 03:08:31;;;;;;;13.95;5.60;;;;;;;-142.57;74.91;115900.28;6226119;23;20642;-81
2023/07/09 03:10:57;;;;;;;10.95;5.47;;;;;;;-142.57;74.96;115900.28;6252594;23;20012;-80
2023/07/09 03:13:25;;;;;;;8.68;5.50;;;;;;;-142.57;74.54;115900.28;6226386;23;20019;-79
2023/07/09 03:15:55;;;;;;;8.90;5.40;;;;;;;-142.57;75.35;115900.28;6226235;23;20011;-83
2023/07/09 03:18:24;;;;;;;8.57;5.60;;;;;;;-142.57;73.86;115900.28;6226420;23;20012;-82
2023/07/09 03:20:52;;;;;;;12.63;5.95;;;;;;;-142.57;74.55;115900.28;6225621;23;20008;-83
2023/07/09 03:23:18;;;;;;;10.10;5.60;;;;;;;-142.57;74.89;115900.28;6253107;23;20099;-81
2023/07/09 03:25:44;;;;;;;9.23;5.35;;;;;;;-142.57;74.42;115900.28;6253850;23;20079;-81
2023/07/09 03:28:11;;;;;;;10.27;5.72;;;;;;;-142.57;74.11;115900.28;6255120;23;20094;-83
2023/07/09 03:30:42;;;;;;;15.32;5.53;;;;;;;-142.57;74.17;115900.28;6227474;23;20019;-81
2023/07/09 03:33:08;;;;;;;10.27;4.85;;;;;;;-142.57;74.89;115900.28;6254696;23;20019;-80
2023/07/09 03:35:34;;;;;;;13.40;5.80;;;;;;;-142.57;74.76;115900.28;6254023;23;20011;-82
2023/07/09 03:38:00;;;;;;;10.32;6.10;;;;;;;-142.57;74.70;115900.28;6255236;23;20008;-84
2023/07/09 03:40:26;;;;;;;19.55;5.75;;;;;;;-142.57;75.58;115900.28;6255887;23;20042;-82
2023/07/09 03:42:51;;;;;;;15.65;5.30;;;;;;;-142.57;76.09;115900.28;6255208;23;20024;-81
2023/07/09 03:45:17;;;;;;;10.52;5.80;;;;;;;-142.57;76.73;115900.28;6257237;23;20009;-81
2023/07/09 03:47:42;;;;;;;15.40;6.65;;;;;;;-142.57;78.55;115900.28;6256636;23;20015;-85
2023/07/09 03:50:09;;;;;;;11.23;6.07;;;;;;;-142.57;79.83;115900.28;6257447;23;20008;-81
2023/07/09 03:52:35;;;;;;;9.07;5.88;;;;;;;-142.57;80.69;115900.28;6230993;23;20012;-83
2023/07/09 03:55:03;;;;;;;14.30;5.70;;;;;;;-142.57;80.65;115900.28;6231054;23;20015;-83
2023/07/09 03:57:30;;;;;;;9.00;5.72;;;;;;;-142.57;81.86;115900.28;6257052;23;20031;-80
2023/07/09 03:59:55;;;;;;;10.90;5.95;;;;;;;-142.57;80.87;115900.28;6255844;23;20004;-83
2023/07/09 04:02:21;;;;;;;11.00;5.90;;;;;;;-142.57;81.63;115900.28;6255720;23;20090;-81
2023/07/09 04:04:46;;;;;;;13.55;5.90;;;;;;;-142.57;80.26;115900.28;6254921;23;20331;-81
2023/07/09 04:07:12;;;;;;;11.35;6.22;;;;;;;-142.57;79.15;115900.28;6255738;23;20066;-81
2023/07/09 04:09:38;;;;;;;11.48;5.97;;;;;;;-142.57;77.77;115900.28;6257120;23;20020;-81
2023/07/09 04:12:04;;;;;;;11.93;5.57;;;;;;;-142.57;78.86;115900.28;6259353;23;20060;-84
2023/07/09 04:14:29;;;;;;;8.40;4.85;;;;;;;-142.57;78.43;115900.28;6257184;23;20008;-84
2023/07/09 04:16:55;;;;;;;11.70;5.65;;;;;;;-142.57;77.88;115900.28;6254247;23;20004;-83
2023/07/09 04:19:20;;;;;;;8.70;5.57;;;;;;;-142.57;78.34;115900.28;6253903;23;20138;-82
2023/07/09 04:21:46;;;;;;;13.80;5.15;;;;;;;-142.57;78.42;115900.28;6253091;23;20008;-80
2023/07/09 04:24:13;;;;;;;10.77;6.18;;;;;;;-142.57;77.46;115900.28;6253521;23;20004;-82
2023/07/09 04:26:39;;;;;;;9.18;6.00;;;;;;;-142.57;78.08;115900.28;6255905;23;20034;-82
2023/07/09 04:29:05;;;;;;;12.05;5.50;;;;;;;-142.57;76.89;115900.28;6257265;23;20343;-84
2023/07/09 04:31:31;;;;;;;8.35;5.63;;;;;;;-142.57;76.79;115900.28;6258730;23;20019;-84
2023/07/09 04:33:57;;;;;;;12.55;4.88;;;;;;;-142.57;77.19;115900.28;6259425;23;20087;-81
2023/07/09 04:36:22;;;;;;;10.77;6.00;;;;;;;-142.57;75.71;115900.28;6259772;23;20015;-83
2023/07/09 04:38:48;;;;;;;12.07;5.88;;;;;;;-142.57;75.78;115900.28;6259389;23;20012;-82
2023/07/09 04:41:13;;;;;;;15.00;6.13;;;;;;;-142.57;74.76;115900.28;6258454;23;20008;-82
2023/07/09 04:43:39;;;;;;;13.40;5.63;;;;;;;-142.57;74.95;115900.28;6258568;23;20008;-85
2023/07/09 04:46:04;;;;;;;12.18;6.60;;;;;;;-142.57;74.69;115900.28;6260215;23;20015;-83
2023/07/09 04:48:33;;;;;;;14.20;6.82;;;;;;;-142.57;75.68;115900.28;6259036;23;20008;-82
2023/07/09 04:50:59;;;;;;;12.85;6.38;;;;;;;-142.57;76.12;115900.28;6261264;23;20012;-84
2023/07/09 04:53:27;;;;;;;13.20;6.90;;;;;;;-142.57;74.79;115900.28;6263760;23;20016;-80
2023/07/09 04:55:53;;;;;;;11.73;6.18;;;;;;;-142.57;74.24;115900.28;6268779;23;20500;-80
2023/07/09 04:58:18;;;;;;;13.07;6.47;;;;;;;-142.57;73.88;115900.28;6271929;22;20008;-82
2023/07/09 05:00:45;;;;;;;10.00;6.25;;;;;;;-142.57;73.26;115900.28;6274527;22;19992;-83
2023/07/09 05:03:11;;;;;;;14.13;7.05;;;;;;;-142.57;72.59;115900.28;6267186;23;20431;-81
2023/07/09 05:05:47;;;;;;;20.85;10.27;;;;;;;-142.57;72.02;115900.28;6263436;23;20027;-85
2023/07/09 05:08:13;;;;;;;16.45;9.90;;;;;;;-142.57;72.73;115900.28;6262237;23;20023;-85
2023/07/09 05:10:49;;;;;;;16.77;11.00;;;;;;;-142.57;73.86;115900.28;6261639;23;20063;-83
2023/07/09 05:13:15;;;;;;;16.15;10.25;;;;;;;-142.57;73.21;115900.28;6260174;23;20143;-86
2023/07/09 05:15:44;;;;;;;22.42;12.45;;;;;;;-142.57;72.02;115900.28;6260846;23;20004;-84
2023/07/09 05:18:10;;;;;;;21.30;10.90;;;;;;;-142.57;72.27;115900.28;6260499;23;20058;-82
2023/07/09 05:20:36;;;;;;;16.65;10.02;;;;;;;-142.57;70.68;115900.28;6260836;23;20450;-82
2023/07/09 05:23:02;;;;;;;17.17;10.93;;;;;;;-142.57;69.86;115900.28;6232538;23;20032;-83
2023/07/09 05:25:27;;;;;;;18.75;11.30;;;;;;;-142.57;70.58;115900.28;6259789;23;20019;-85
2023/07/09 05:27:53;;;;;;;25.08;11.10;;;;;;;-142.57;69.79;115900.28;6259197;23;20012;-83
2023/07/09 05:30:19;;;;;;;17.10;10.07;;;;;;;-142.57;69.23;115900.28;6258729;23;20038;-83
2023/07/09 05:32:46;;;;;;;20.25;12.65;;;;;;;-142.57;69.12;115900.28;6259307;23;20537;-83
2023/07/09 05:35:12;;;;;;;18.08;11.63;;;;;;;-142.57;69.31;115900.28;6258789;23;20428;-81
2023/07/09 05:37:37;;;;;;;23.67;12.18;;;;;;;-142.57;68.76;115900.28;6259153;23;20084;-83
2023/07/09 05:40:07;;;;;;;19.52;12.20;;;;;;;-142.57;68.87;115900.28;6261304;23;20023;-82
2023/07/09 05:42:33;;;;;;;18.98;11.93;;;;;;;-142.57;68.41;115900.28;6263609;23;20014;-83
2023/07/09 05:44:59;;;;;;;29.52;12.45;;;;;;;-142.57;67.93;115900.28;6270751;23;20008;-82
2023/07/09 05:47:25;;;;;;;22.58;12.35;;;;;;;-142.57;68.18;115900.28;6272307;23;20004;-82
2023/07/09 05:49:51;;;;;;;22.95;12.48;;;;;;;-142.57;68.37;115900.28;6218401;23;20016;-80
2023/07/09 05:52:22;;;;;;;18.52;11.25;;;;;;;-142.57;66.85;115900.28;6259211;23;20019;-83
2023/07/09 05:54:52;;;;;;;21.35;11.35;;;;;;;-142.57;66.19;115900.28;6232154;23;20012;-82
2023/07/09 05:57:18;;;;;;;21.27;11.48;;;;;;;-142.57;64.87;115900.28;6233467;23;20036;-83
2023/07/09 05:59:43;;;;;;;23.60;11.30;;;;;;;-142.57;62.86;115900.28;6258441;23;20000;-83
2023/07/09 06:02:14;;;;;;;20.70;11.50;;;;;;;-142.57;64.54;115900.28;6257936;23;20012;-83
2023/07/09 06:04:41;;;;;;;15.77;10.48;;;;;;;-142.57;62.39;115900.28;6259143;23;20067;-86
2023/07/09 06:07:08;;;;;;;15.80;10.50;;;;;;;-142.57;60.82;115900.28;6259005;23;20000;-82
2023/07/09 06:09:36;;;;;;;17.40;10.60;;;;;;;-142.57;60.38;115900.28;6233553;23;20022;-87
2023/07/09 06:12:05;;;;;;;23.77;10.82;;;;;;;-142.57;59.70;115900.28;6206842;23;20370;-82
2023/07/09 06:14:31;;;;;;;18.40;10.27;;;;;;;-142.57;59.53;115900.28;6232786;23;20000;-85
2023/07/09 06:16:58;;;;;;;21.23;9.93;;;;;;;-142.57;57.86;115900.28;6258734;23;20105;-85
2023/07/09 06:19:27;;;;;;;20.35;11.20;;;;;;;-142.57;56.42;115900.28;6232390;23;20073;-84
2023/07/09 06:21:52;;;;;;;18.48;9.75;;;;;;;-142.57;54.89;115900.28;6234984;23;20023;-82
2023/07/09 06:24:18;;;;;;;14.50;9.00;;;;;;;-142.57;54.62;115900.28;6262019;23;20004;-81
2023/07/09 06:26:44;;;;;;;21.15;10.07;;;;;;;-142.57;52.55;115900.28;6259561;23;20008;-81
2023/07/09 06:29:10;;;;;;;24.80;10.48;;;;;;;-142.57;50.25;115900.28;6263469;23;20015;-80
2023/07/09 06:31:37;;;;;;;15.88;9.30;;;;;;;-142.57;49.20;115900.28;6261230;23;20095;-81
2023/07/09 06:34:03;;;;;;;17.25;9.32;;;;;;;-142.57;45.89;115900.28;6258773;23;20059;-83
2023/07/09 06:36:29;;;;;;;15.15;9.27;;;;;;;-142.57;46.35;115900.28;6235275;23;20019;-81
2023/07/09 06:38:54;;;;;;;18.50;8.55;;;;;;;-142.57;44.78;115900.28;6260874;23;20012;-84
2023/07/09 06:41:20;;;;;;;15.73;8.90;;;;;;;-142.57;43.36;115900.28;6259984;23;20083;-85
2023/07/09 06:43:46;;;;;;;17.88;8.38;;;;;;;-142.57;42.12;115900.28;6257671;23;20016;-85
2023/07/09 06:46:14;;;;;;;22.10;9.60;;;;;;;-142.57;42.44;115900.28;6260080;23;20070;-88
2023/07/09 06:48:40;;;;;;;18.80;10.07;;;;;;;-142.57;45.47;115900.28;6231671;23;20019;-84
2023/07/09 06:51:07;;;;;;;19.45;9.20;;;;;;;-142.57;43.33;115900.28;6255308;23;20008;-86
2023/07/09 06:53:32;;;;;;;21.85;8.18;;;;;;;-142.57;42.56;115900.28;6229517;23;20020;-82
2023/07/09 06:55:59;;;;;;;16.60;8.60;;;;;;;-142.57;42.06;115900.28;6257311;23;20004;-85
2023/07/09 06:58:31;;;;;;;15.18;8.55;;;;;;;-142.57;40.01;115900.28;6230449;23;20012;-83
2023/07/09 07:01:03;;;;;;;30.90;8.25;;;;;;;-142.57;39.35;115900.28;6256762;23;20415;-84
2023/07/09 07:03:29;;;;;;;16.13;7.68;;;;;;;-142.57;39.40;115900.28;6257527;23;20018;-85
2023/07/09 07:05:55;;;;;;;13.70;7.28;;;;;;;-142.57;39.07;115900.28;6256466;23;20011;-84
2023/07/09 07:08:22;;;;;;;11.43;7.00;;;;;;;-142.57;37.28;115900.28;6229955;23;20008;-84
2023/07/09 07:10:49;;;;;;;13.60;6.28;;;;;;;-142.57;37.76;115900.28;6256676;23;20012;-85
2023/07/09 07:13:15;;;;;;;8.52;6.25;;;;;;;-142.57;37.45;115900.28;6256289;23;20031;-84
2023/07/09 07:15:41;;;;;;;16.30;6.90;;;;;;;-142.57;39.37;115900.28;6229855;23;20060;-83
2023/07/09 07:18:08;;;;;;;15.50;6.47;;;;;;;-142.57;39.48;115900.28;6255755;23;20007;-83
2023/07/09 07:20:34;;;;;;;11.93;6.50;;;;;;;-142.57;37.95;115900.28;6228361;23;20022;-85
2023/07/09 07:23:03;;;;;;;13.40;7.30;;;;;;;-142.57;38.36;115900.28;6255251;23;20043;-85
2023/07/09 07:25:30;;;;;;;16.40;6.75;;;;;;;-142.57;38.29;115900.28;6255616;23;20016;-83
2023/07/09 07:27:55;;;;;;;17.92;6.82;;;;;;;-142.57;39.00;115900.28;6254758;23;20000;-85
2023/07/09 07:30:24;;;;;;;15.18;6.82;;;;;;;-142.57;36.86;115900.28;6256112;23;20015;-85
2023/07/09 07:32:50;;;;;;;12.05;6.25;;;;;;;-142.57;38.13;115900.28;6203317;23;20024;-87
2023/07/09 07:35:17;;;;;;;17.70;6.30;;;;;;;-142.57;37.24;115900.28;6255290;23;20019;-83
2023/07/09 07:37:43;;;;;;;13.00;6.32;;;;;;;-142.57;38.54;115900.28;6229051;23;20367;-86
2023/07/09 07:40:09;;;;;;;14.55;6.25;;;;;;;-142.57;37.80;115900.28;6256123;23;20009;-84
2023/07/09 07:42:35;;;;;;;12.50;5.85;;;;;;;-142.57;34.98;115900.28;6256412;23;20493;-86
2023/07/09 07:45:00;;;;;;;10.70;5.85;;;;;;;-142.57;35.03;115900.28;6229756;23;20008;-84
2023/07/09 07:47:27;;;;;;;12.82;5.72;;;;;;;-142.57;35.23;115900.28;6254817;23;20000;-83
2023/07/09 07:49:53;;;;;;;9.80;6.63;;;;;;;-142.57;36.22;115900.28;6255910;23;20103;-83
2023/07/09 07:52:19;;;;;;;10.50;6.55;;;;;;;-142.57;35.80;115900.28;6257148;23;20014;-83
2023/07/09 07:54:45;;;;;;;7.60;5.57;;;;;;;-142.57;34.41;115900.28;6254093;23;20028;-86
2023/07/09 07:57:11;;;;;;;14.90;6.50;;;;;;;-142.57;37.32;115900.28;6201350;23;20004;-83
2023/07/09 07:59:37;;;;;;;10.55;6.20;;;;;;;-142.57;37.66;115900.28;6207867;23;20012;-84
2023/07/09 08:02:04;;;;;;;13.25;6.65;;;;;;;-142.57;36.69;115900.28;6265658;23;20004;-83
2023/07/09 08:04:30;;;;;;;13.73;5.80;;;;;;;-142.57;35.12;115900.28;6272653;23;20012;-81
2023/07/09 08:06:55;;;;;;;12.77;6.57;;;;;;;-142.57;35.07;115900.28;6271919;22;20012;-86
2023/07/09 08:09:21;;;;;;;12.40;5.40;;;;;;;-142.57;35.35;115900.28;6257744;23;20009;-84
2023/07/09 08:11:46;;;;;;;10.75;5.97;;;;;;;-142.57;32.95;115900.28;6252247;23;20001;-85
2023/07/09 08:14:12;;;;;;;14.35;6.45;;;;;;;-142.57;33.16;115900.28;6251987;23;20415;-85
2023/07/09 08:16:38;;;;;;;11.10;6.88;;;;;;;-142.57;34.05;115900.28;6252831;23;20008;-85
2023/07/09 08:19:05;;;;;;;13.00;6.95;;;;;;;-142.57;35.41;115900.28;6252239;23;20016;-83
2023/07/09 08:21:30;;;;;;;12.98;6.00;;;;;;;-142.57;34.26;115900.28;6251335;23;20005;-85
2023/07/09 08:23:56;;;;;;;13.70;6.38;;;;;;;-142.57;34.21;115900.28;6250825;23;20019;-84
2023/07/09 08:26:21;;;;;;;12.57;6.65;;;;;;;-142.57;34.34;115900.28;6251478;23;20474;-83
2023/07/09 08:28:47;;;;;;;13.43;7.00;;;;;;;-142.57;33.43;115900.28;6252776;23;20031;-84
2023/07/09 08:31:13;;;;;;;13.57;6.05;;;;;;;-142.57;32.44;115900.28;6254731;23;20012;-84
2023/07/09 08:33:41;;;;;;;12.70;5.93;;;;;;;-142.57;33.05;115900.28;6256557;23;20008;-89
2023/07/09 08:36:07;;;;;;;9.88;5.88;;;;;;;-142.57;32.02;115900.28;6257303;23;20012;-89
2023/07/09 08:38:33;;;;;;;14.18;6.28;;;;;;;-142.57;33.42;115900.28;6232607;23;20008;-84
2023/07/09 08:41:28;;;;;;;15.05;6.32;;;;;;;-142.57;31.68;115900.28;6253307;23;20012;-86
2023/07/09 08:43:57;;;;;;;16.90;6.82;;;;;;;-142.57;34.85;115900.28;6252562;23;20016;-84
2023/07/09 08:47:04;;;;;;;21.35;6.32;;;;;;;-142.57;34.41;115900.28;6223742;23;20348;-84
2023/07/09 08:49:54;;;;;;;11.80;6.43;;;;;;;-142.57;32.62;115900.28;6098022;23;20026;-83
2023/07/09 08:52:35;;;;;;;17.45;7.75;;;;;;;-142.57;32.51;115900.28;6087007;23;20474;-83
2023/07/09 08:55:14;;;;;;;21.98;8.05;;;;;;;-142.57;32.93;115900.28;6078305;23;20149;-84
2023/07/09 08:57:44;;;;;;;13.70;6.70;;;;;;;-142.57;32.18;115900.28;6100759;23;20021;-82
2023/07/09 09:00:41;;;;;;;12.85;6.43;;;;;;;-142.57;32.04;115900.28;6100834;23;20015;-84
2023/07/09 09:03:31;;;;;;;11.60;6.80;;;;;;;-142.57;31.49;115900.28;6101841;23;20022;-87
2023/07/09 09:05:57;;;;;;;15.90;6.80;;;;;;;-142.57;31.31;115900.28;6084085;23;20485;-81
2023/07/09 09:08:59;;;;;;;;;;;;;;;;;;;;;
2023/07/09 09:11:45;;;;;;;11.13;6.97;;;;;;;-142.57;31.72;115900.28;6101681;23;20026;-84
2023/07/09 09:14:29;;;;;;;14.75;6.85;;;;;;;-142.57;31.40;115900.28;6118454;23;20003;-85
2023/07/09 09:17:02;;;;;;;16.95;6.63;;;;;;;-142.57;31.29;115900.28;6105020;23;20018;-83
2023/07/09 09:19:38;;;;;;;12.23;6.75;;;;;;;-142.57;31.61;115900.28;6131480;23;20012;-86
2023/07/09 09:22:18;;;;;;;11.20;6.60;;;;;;;-142.57;32.08;115900.28;6254005;23;20008;-86
2023/07/09 09:24:56;;;;;;;11.25;5.88;;;;;;;-142.57;31.08;115900.28;6175508;23;20016;-85
2023/07/09 09:27:22;;;;;;;15.00;6.55;;;;;;;-142.57;30.22;115900.28;6225609;23;20008;-84
2023/07/09 09:29:47;;;;;;;13.77;6.82;;;;;;;-142.57;30.58;115900.28;6252238;23;20071;-85
2023/07/09 09:32:28;;;;;;;10.68;6.25;;;;;;;-142.57;30.69;115900.28;6252679;23;20012;-85
2023/07/09 09:34:55;;;;;;;12.97;6.63;;;;;;;-142.57;29.60;115900.28;6253228;23;20343;-86
2023/07/09 09:37:31;;;;;;;9.63;5.80;;;;;;;-142.57;29.48;115900.28;6202163;23;20023;-87
2023/07/09 09:39:59;;;;;;;13.93;7.18;;;;;;;-142.57;31.03;115900.28;6226291;23;20012;-84
2023/07/09 09:42:25;;;;;;;16.70;7.43;;;;;;;-142.57;30.43;115900.28;6251056;23;20415;-84
2023/07/09 09:44:55;;;;;;;12.32;6.18;;;;;;;-142.57;30.53;115900.28;6227108;23;20087;-85
2023/07/09 09:47:21;;;;;;;19.98;6.35;;;;;;;-142.57;30.19;115900.28;6253482;23;20008;-85
2023/07/09 09:49:46;;;;;;;23.02;7.03;;;;;;;-142.57;30.28;115900.28;6253197;23;20500;-85
2023/07/09 09:52:14;;;;;;;13.57;7.50;;;;;;;-142.57;30.58;115900.28;6253509;23;20004;-86
2023/07/09 09:54:44;;;;;;;15.63;6.88;;;;;;;-142.57;30.17;115900.28;6226754;23;20008;-84
2023/07/09 09:57:19;;;;;;;14.45;7.18;;;;;;;-142.57;30.54;115900.28;6254338;23;20015;-84
2023/07/09 09:59:46;;;;;;;17.35;6.65;;;;;;;-142.57;30.73;115900.28;6255081;23;20313;-85
2023/07/09 10:02:21;;;;;;;16.85;8.05;;;;;;;-142.57;30.87;115900.28;6252942;23;20008;-85
2023/07/09 10:04:47;;;;;;;15.80;6.93;;;;;;;-142.57;31.20;115900.28;6252733;23;20032;-83
2023/07/09 10:07:39;;;;;;;16.88;7.05;;;;;;;-142.57;31.05;115900.28;6200184;23;20074;-88
2023/07/09 10:10:14;;;;;;;14.20;6.72;;;;;;;-142.57;31.56;115900.28;6254343;23;20043;-83
2023/07/09 10:13:06;;;;;;;21.30;7.50;;;;;;;-142.57;31.30;115900.28;6202593;23;20349;-83
2023/07/09 10:15:56;;;;;;;12.95;6.05;;;;;;;-142.57;31.08;115900.28;6254279;23;20414;-85
2023/07/09 10:18:40;;;;;;;11.77;6.10;;;;;;;-142.57;31.23;115900.28;6253097;23;20008;-85
2023/07/09 10:21:19;;;;;;;14.27;6.03;;;;;;;-142.57;30.77;115900.28;6253320;23;20008;-84
2023/07/09 10:23:59;;;;;;;9.55;5.22;;;;;;;-142.57;30.53;115900.28;6253172;23;20012;-85
2023/07/09 10:26:36;;;;;;;8.38;5.40;;;;;;;-142.57;29.63;115900.28;6251552;23;20008;-85
2023/07/09 10:29:13;;;;;;;8.68;5.57;;;;;;;-142.57;29.89;115900.28;6220878;23;20039;-87
2023/07/09 10:31:58;;;;;;;16.05;5.75;;;;;;;-142.57;30.45;115900.28;6220795;23;20016;-85
2023/07/09 10:34:23;;;;;;;13.63;5.75;;;;;;;-142.57;30.15;115900.28;6250151;23;20008;-83
2023/07/09 10:37:21;;;;;;;11.20;4.97;;;;;;;-142.57;29.60;115900.28;6223004;23;20015;-88
2023/07/09 10:39:57;;;;;;;11.18;5.72;;;;;;;-142.57;29.98;115900.28;6253160;23;20014;-87
2023/07/09 10:42:37;;;;;;;9.93;5.80;;;;;;;-142.57;29.44;115900.28;6253171;23;20019;-87
2023/07/09 10:45:15;;;;;;;11.95;5.68;;;;;;;-142.57;29.42;115900.28;6233410;23;20019;-88
2023/07/09 10:47:47;;;;;;;26.35;7.18;;;;;;;-142.57;29.71;115900.28;6173687;23;20048;-89
2023/07/09 10:50:24;;;;;;;12.35;5.78;;;;;;;-142.57;30.50;115900.28;6196211;23;20016;-87
2023/07/09 10:52:54;;;;;;;11.93;5.50;;;;;;;-142.57;30.00;115900.28;6223531;23;20378;-89
2023/07/09 10:55:37;;;;;;;8.20;5.15;;;;;;;-142.57;29.25;115900.28;6222181;23;20011;-88
2023/07/09 10:59:16;;;;;;;;;;;;;;;;;;;;;
2023/07/09 11:02:13;;;;;;;10.77;5.55;;;;;;;-142.57;27.84;115900.28;6061698;23;20048;-89
2023/07/09 11:05:00;;;;;;;9.68;4.95;;;;;;;-142.57;27.95;115900.28;6072991;23;20070;-85
2023/07/09 11:07:27;;;;;;;7.03;4.82;;;;;;;-142.57;28.28;115900.28;6060209;23;20062;-85
2023/07/09 11:09:57;;;;;;;8.05;5.00;;;;;;;-142.57;28.79;115900.28;6064448;23;20058;-86
2023/07/09 11:12:38;;;;;;;14.63;4.95;;;;;;;-142.57;28.45;115900.28;6093240;23;20021;-84
2023/07/09 11:15:10;;;;;;;10.93;5.10;;;;;;;-142.57;28.87;115900.28;6128737;23;20095;-89
2023/07/09 11:17:40;;;;;;;;;;;;;;;-142.57;28.60;115900.28;6135518;23;20068;-87